createdAt,value
2018-08-30T00:01:35.162Z,16.90
2018-08-30T00:04:03.468Z,16.90
2018-08-30T00:06:32.542Z,16.90
2018-08-30T00:09:00.900Z,16.90
2018-08-30T00:11:29.267Z,16.90
2018-08-30T00:13:57.634Z,16.80
2018-08-30T00:16:25.959Z,16.80
2018-08-30T00:18:54.311Z,16.80
2018-08-30T00:21:22.736Z,16.80
2018-08-30T00:23:51.216Z,16.70
2018-08-30T00:26:19.661Z,16.80
2018-08-30T00:28:48.691Z,16.70
2018-08-30T00:31:17.002Z,16.80
2018-08-30T00:33:45.376Z,16.70
2018-08-30T00:36:13.750Z,16.70
2018-08-30T00:38:42.061Z,16.70
2018-08-30T00:41:10.613Z,16.70
2018-08-30T00:43:38.980Z,16.70
2018-08-30T00:46:07.354Z,16.70
2018-08-30T00:48:35.887Z,16.70
2018-08-30T00:51:04.258Z,16.70
2018-08-30T00:53:32.552Z,16.70
2018-08-30T00:56:00.926Z,16.60
2018-08-30T00:58:29.332Z,16.60
2018-08-30T01:00:57.818Z,16.60
2018-08-30T01:03:26.216Z,16.60
2018-08-30T01:05:54.595Z,16.60
2018-08-30T01:08:23.025Z,16.60
2018-08-30T01:10:51.533Z,16.60
2018-08-30T01:13:19.845Z,16.60
2018-08-30T01:15:48.189Z,16.50
2018-08-30T01:18:16.528Z,16.50
2018-08-30T01:20:44.925Z,16.40
2018-08-30T01:23:13.254Z,16.30
2018-08-30T01:25:45.315Z,16.40
2018-08-30T01:28:13.698Z,16.40
2018-08-30T01:30:42.079Z,16.30
2018-08-30T01:33:10.475Z,16.30
2018-08-30T01:35:38.835Z,16.30
2018-08-30T01:38:07.134Z,16.30
2018-08-30T01:40:35.690Z,16.30
2018-08-30T01:43:04.089Z,16.30
2018-08-30T01:45:32.523Z,16.20
2018-08-30T01:48:00.863Z,16.30
2018-08-30T01:50:29.201Z,16.40
2018-08-30T01:52:57.558Z,16.40
2018-08-30T01:55:26.062Z,16.30
2018-08-30T01:57:54.524Z,16.30
2018-08-30T02:00:22.861Z,16.30
2018-08-30T02:02:51.934Z,16.40
2018-08-30T02:05:20.297Z,16.40
2018-08-30T02:07:48.751Z,16.40
2018-08-30T02:10:17.193Z,16.30
2018-08-30T02:12:45.599Z,16.30
2018-08-30T02:15:14.177Z,16.30
2018-08-30T02:17:42.518Z,16.20
2018-08-30T02:20:11.151Z,16.20
2018-08-30T02:22:39.564Z,16.20
2018-08-30T02:25:07.955Z,16.20
2018-08-30T02:27:36.442Z,16.20
2018-08-30T02:30:04.780Z,16.20
2018-08-30T02:32:33.324Z,16.20
2018-08-30T02:35:01.772Z,16.20
2018-08-30T02:37:30.162Z,16.20
2018-08-30T02:39:58.491Z,16.10
2018-08-30T02:42:27.563Z,16.10
2018-08-30T02:44:55.966Z,16.00
2018-08-30T02:47:24.426Z,16.00
2018-08-30T02:49:52.730Z,16.00
2018-08-30T02:52:21.129Z,16.00
2018-08-30T02:54:49.550Z,16.00
2018-08-30T02:57:18.424Z,15.90
2018-08-30T02:59:46.756Z,15.90
2018-08-30T03:02:15.182Z,15.90
2018-08-30T03:04:43.656Z,15.80
2018-08-30T03:07:12.563Z,15.80
2018-08-30T03:09:40.883Z,15.80
2018-08-30T03:12:09.251Z,15.80
2018-08-30T03:14:37.623Z,15.70
2018-08-30T03:17:06.075Z,15.70
2018-08-30T03:19:34.537Z,15.70
2018-08-30T03:22:02.964Z,15.70
2018-08-30T03:24:31.324Z,15.70
2018-08-30T03:26:59.707Z,15.70
2018-08-30T03:29:28.855Z,15.60
2018-08-30T03:31:57.717Z,15.50
2018-08-30T03:34:26.143Z,15.40
2018-08-30T03:36:54.519Z,15.40
2018-08-30T03:39:22.899Z,15.30
2018-08-30T03:41:51.255Z,15.20
2018-08-30T03:44:19.648Z,15.30
2018-08-30T03:46:48.000Z,15.20
2018-08-30T03:49:16.304Z,15.20
2018-08-30T03:51:44.742Z,15.30
2018-08-30T03:54:13.163Z,15.30
2018-08-30T03:56:41.580Z,15.20
2018-08-30T03:59:10.095Z,15.20
2018-08-30T04:01:38.566Z,15.20
2018-08-30T04:04:06.911Z,15.10
2018-08-30T04:06:35.294Z,15.00
2018-08-30T04:09:04.510Z,15.00
2018-08-30T04:11:33.389Z,15.00
2018-08-30T04:14:01.744Z,15.00
2018-08-30T04:16:30.411Z,15.10
2018-08-30T04:19:04.158Z,15.00
2018-08-30T04:21:32.990Z,15.00
2018-08-30T04:24:01.665Z,15.10
2018-08-30T04:26:30.459Z,15.00
2018-08-30T04:28:59.285Z,15.00
2018-08-30T04:31:28.083Z,15.00
2018-08-30T04:33:56.549Z,14.90
2018-08-30T04:36:25.297Z,14.90
2018-08-30T04:38:53.989Z,14.90
2018-08-30T04:41:22.515Z,14.90
2018-08-30T04:43:50.892Z,14.80
2018-08-30T04:46:19.520Z,14.80
2018-08-30T04:48:47.956Z,14.70
2018-08-30T04:51:16.255Z,14.70
2018-08-30T04:53:44.570Z,14.80
2018-08-30T04:56:12.894Z,14.90
2018-08-30T04:58:41.244Z,14.80
2018-08-30T05:01:10.305Z,14.80
2018-08-30T05:03:38.752Z,14.70
2018-08-30T05:06:06.830Z,14.70
2018-08-30T05:08:35.335Z,14.70
2018-08-30T05:11:03.733Z,14.70
2018-08-30T05:13:32.162Z,14.60
2018-08-30T05:16:01.058Z,14.70
2018-08-30T05:18:29.484Z,14.60
2018-08-30T05:20:58.433Z,14.70
2018-08-30T05:23:27.142Z,14.70
2018-08-30T05:25:56.686Z,14.90
2018-08-30T05:28:25.694Z,14.90
2018-08-30T05:30:55.288Z,15.00
2018-08-30T05:33:23.746Z,15.00
2018-08-30T05:35:52.304Z,15.00
2018-08-30T05:38:20.806Z,15.00
2018-08-30T05:40:49.609Z,15.10
2018-08-30T05:43:18.174Z,15.10
2018-08-30T05:45:46.615Z,15.20
2018-08-30T05:48:15.227Z,15.30
2018-08-30T05:50:43.875Z,15.40
2018-08-30T05:53:12.329Z,15.40
2018-08-30T05:55:42.268Z,15.50
2018-08-30T05:58:10.731Z,15.60
2018-08-30T06:00:39.147Z,15.70
2018-08-30T06:03:07.641Z,15.80
2018-08-30T06:05:36.090Z,15.90
2018-08-30T06:08:04.944Z,15.90
2018-08-30T06:10:47.071Z,16.00
2018-08-30T06:13:15.599Z,16.10
2018-08-30T06:15:43.972Z,16.10
2018-08-30T06:18:12.481Z,16.20
2018-08-30T06:20:40.815Z,16.30
2018-08-30T06:23:09.166Z,16.40
2018-08-30T06:25:37.580Z,16.40
2018-08-30T06:28:06.753Z,16.80
2018-08-30T06:30:35.433Z,16.90
2018-08-30T06:33:04.022Z,16.60
2018-08-30T06:35:34.240Z,16.60
2018-08-30T06:38:02.737Z,16.60
2018-08-30T06:40:31.260Z,16.50
2018-08-30T06:42:59.643Z,16.50
2018-08-30T06:45:28.240Z,16.50
2018-08-30T06:47:56.839Z,16.60
2018-08-30T06:50:27.505Z,16.70
2018-08-30T06:55:40.175Z,16.70
2018-08-30T06:58:08.815Z,16.80
2018-08-30T07:00:37.468Z,16.90
2018-08-30T07:03:06.633Z,17.00
2018-08-30T07:05:35.315Z,17.20
2018-08-30T07:08:04.151Z,17.30
2018-08-30T07:10:32.784Z,17.40
2018-08-30T07:13:01.513Z,17.50
2018-08-30T07:15:29.902Z,17.60
2018-08-30T07:17:58.437Z,17.70
2018-08-30T07:20:26.893Z,17.70
2018-08-30T07:22:55.400Z,17.70
2018-08-30T07:25:23.802Z,17.70
2018-08-30T07:27:52.483Z,17.70
2018-08-30T07:30:20.953Z,17.70
2018-08-30T07:32:49.324Z,17.80
2018-08-30T07:35:17.910Z,17.60
2018-08-30T07:37:46.328Z,17.60
2018-08-30T07:40:15.330Z,17.70
2018-08-30T07:42:43.793Z,17.70
2018-08-30T07:45:13.114Z,17.90
2018-08-30T07:47:42.364Z,17.80
2018-08-30T07:50:11.605Z,17.90
2018-08-30T07:52:41.038Z,18.00
2018-08-30T07:55:09.441Z,18.10
2018-08-30T07:57:37.972Z,18.20
2018-08-30T08:00:06.966Z,18.30
2018-08-30T08:02:36.299Z,18.40
2018-08-30T08:05:04.706Z,18.50
2018-08-30T08:07:33.863Z,18.60
2018-08-30T08:10:02.516Z,18.80
2018-08-30T08:12:30.912Z,18.80
2018-08-30T08:15:00.303Z,18.70
2018-08-30T08:17:28.798Z,18.60
2018-08-30T08:19:57.119Z,18.20
2018-08-30T08:22:25.537Z,18.00
2018-08-30T08:24:53.890Z,17.90
2018-08-30T08:27:22.257Z,17.90
2018-08-30T08:29:50.700Z,17.80
2018-08-30T08:32:19.119Z,17.70
2018-08-30T08:34:47.621Z,17.70
2018-08-30T08:37:15.985Z,17.60
2018-08-30T08:39:44.908Z,17.70
2018-08-30T08:42:13.296Z,17.70
2018-08-30T08:44:41.723Z,17.80
2018-08-30T08:47:10.169Z,18.00
2018-08-30T08:49:38.626Z,17.90
2018-08-30T08:52:07.003Z,18.00
2018-08-30T08:54:36.796Z,18.00
2018-08-30T08:57:05.427Z,18.10
2018-08-30T08:59:33.829Z,18.10
2018-08-30T09:02:02.322Z,18.20
2018-08-30T09:04:30.770Z,18.40
2018-08-30T09:07:01.688Z,18.50
2018-08-30T09:09:30.007Z,18.50
2018-08-30T09:11:58.490Z,18.50
2018-08-30T09:14:27.053Z,18.30
2018-08-30T09:16:55.591Z,18.10
2018-08-30T09:19:24.267Z,18.20
2018-08-30T09:21:52.642Z,18.30
2018-08-30T09:24:21.123Z,18.50
2018-08-30T09:26:49.582Z,18.60
2018-08-30T09:29:17.975Z,18.50
2018-08-30T09:31:46.671Z,18.40
2018-08-30T09:34:15.113Z,18.30
2018-08-30T09:36:43.535Z,18.40
2018-08-30T09:39:11.946Z,18.40
2018-08-30T09:41:40.528Z,18.50
2018-08-30T09:44:08.909Z,18.40
2018-08-30T09:46:37.476Z,18.50
2018-08-30T09:49:06.314Z,18.70
2018-08-30T09:51:34.797Z,18.50
2018-08-30T09:54:03.343Z,18.50
2018-08-30T09:56:31.856Z,18.50
2018-08-30T09:59:00.980Z,18.70
2018-08-30T10:01:35.109Z,18.90
2018-08-30T10:04:03.512Z,19.00
2018-08-30T10:06:31.995Z,18.90
2018-08-30T10:09:00.596Z,18.90
2018-08-30T10:11:29.285Z,18.80
2018-08-30T10:13:57.679Z,18.80
2018-08-30T10:16:26.305Z,19.00
2018-08-30T10:18:55.012Z,19.00
2018-08-30T10:21:24.079Z,19.10
2018-08-30T10:23:52.480Z,19.10
2018-08-30T10:26:21.706Z,19.30
2018-08-30T10:28:50.132Z,19.30
2018-08-30T10:31:18.676Z,19.20
2018-08-30T10:33:47.035Z,19.20
2018-08-30T10:36:16.059Z,19.40
2018-08-30T10:38:44.508Z,19.60
2018-08-30T10:41:12.953Z,19.60
2018-08-30T10:43:41.460Z,19.40
2018-08-30T10:46:10.093Z,19.30
2018-08-30T10:48:38.628Z,19.20
2018-08-30T10:51:07.196Z,19.00
2018-08-30T10:53:35.598Z,18.90
2018-08-30T10:56:04.429Z,19.00
2018-08-30T10:58:32.977Z,18.90
2018-08-30T11:01:01.436Z,18.80
2018-08-30T11:03:29.997Z,19.10
2018-08-30T11:05:58.456Z,19.30
2018-08-30T11:08:27.436Z,19.30
2018-08-30T11:10:55.776Z,19.30
2018-08-30T11:13:24.457Z,19.20
2018-08-30T11:15:52.842Z,19.20
2018-08-30T11:18:21.616Z,19.10
2018-08-30T11:20:50.117Z,19.40
2018-08-30T11:23:18.580Z,19.70
2018-08-30T11:25:47.040Z,19.90
2018-08-30T11:28:15.617Z,19.90
2018-08-30T11:30:44.002Z,20.10
2018-08-30T11:33:12.461Z,20.40
2018-08-30T11:35:40.787Z,20.70
2018-08-30T11:38:09.394Z,20.70
2018-08-30T11:40:37.864Z,20.50
2018-08-30T11:43:06.467Z,20.10
2018-08-30T11:45:34.932Z,20.00
2018-08-30T11:48:03.336Z,19.90
2018-08-30T11:50:31.744Z,19.90
2018-08-30T11:53:00.702Z,19.90
2018-08-30T11:55:29.107Z,19.70
2018-08-30T11:57:57.522Z,19.70
2018-08-30T12:00:26.062Z,19.90
2018-08-30T12:02:54.469Z,20.00
2018-08-30T12:05:22.877Z,19.90
2018-08-30T12:07:53.278Z,19.70
2018-08-30T12:10:25.454Z,20.00
2018-08-30T12:12:54.037Z,20.20
2018-08-30T12:15:22.519Z,20.50
2018-08-30T12:17:50.935Z,20.50
2018-08-30T12:20:20.050Z,20.20
2018-08-30T12:22:48.575Z,19.80
2018-08-30T12:25:17.136Z,19.60
2018-08-30T12:27:45.620Z,19.90
2018-08-30T12:30:13.980Z,20.30
2018-08-30T12:32:42.454Z,20.50
2018-08-30T12:35:11.925Z,20.50
2018-08-30T12:37:40.253Z,20.30
2018-08-30T12:40:08.739Z,20.60
2018-08-30T12:42:43.423Z,21.00
2018-08-30T12:45:12.571Z,20.90
2018-08-30T12:47:41.753Z,20.80
2018-08-30T12:50:10.330Z,20.40
2018-08-30T12:52:39.451Z,20.80
2018-08-30T12:55:08.489Z,21.00
2018-08-30T12:57:36.968Z,21.40
2018-08-30T13:00:05.826Z,21.40
2018-08-30T13:02:34.206Z,21.50
2018-08-30T13:05:02.622Z,21.70
2018-08-30T13:07:32.563Z,21.70
2018-08-30T13:10:01.084Z,21.60
2018-08-30T13:12:29.602Z,21.50
2018-08-30T13:14:57.985Z,21.40
2018-08-30T13:17:26.216Z,21.90
2018-08-30T13:19:54.563Z,21.90
2018-08-30T13:22:23.310Z,21.70
2018-08-30T13:24:54.770Z,21.90
2018-08-30T13:27:24.252Z,22.00
2018-08-30T13:29:53.137Z,22.10
2018-08-30T13:32:26.065Z,22.00
2018-08-30T13:34:54.705Z,21.90
2018-08-30T13:37:23.172Z,21.90
2018-08-30T13:39:51.428Z,21.90
2018-08-30T13:42:19.885Z,22.00
2018-08-30T13:44:48.162Z,22.20
2018-08-30T13:47:16.684Z,22.50
2018-08-30T13:49:44.870Z,22.50
2018-08-30T13:52:13.229Z,22.50
2018-08-30T13:54:41.756Z,22.80
2018-08-30T13:57:11.383Z,22.80
2018-08-30T13:59:39.965Z,22.90
2018-08-30T14:02:08.827Z,23.20
2018-08-30T14:04:37.268Z,23.10
2018-08-30T14:07:06.866Z,22.80
2018-08-30T14:09:35.275Z,22.50
2018-08-30T14:12:03.811Z,22.40
2018-08-30T14:14:32.566Z,22.60
2018-08-30T14:17:01.313Z,22.80
2018-08-30T14:19:29.686Z,22.70
2018-08-30T14:21:58.710Z,22.70
2018-08-30T14:24:27.101Z,22.50
2018-08-30T14:26:56.009Z,22.20
2018-08-30T14:29:24.372Z,22.20
2018-08-30T14:31:52.698Z,22.40
2018-08-30T14:34:21.251Z,22.40
2018-08-30T14:36:50.320Z,22.30
2018-08-30T14:39:18.755Z,22.40
2018-08-30T14:41:47.290Z,22.10
2018-08-30T14:44:15.642Z,22.00
2018-08-30T14:46:44.131Z,21.80
2018-08-30T14:49:13.142Z,21.70
2018-08-30T14:51:41.411Z,21.50
2018-08-30T14:54:09.928Z,21.70
2018-08-30T14:56:39.052Z,21.80
2018-08-30T14:59:07.681Z,21.90
2018-08-30T15:01:36.009Z,22.00
2018-08-30T15:04:05.178Z,22.00
2018-08-30T15:06:33.711Z,22.00
2018-08-30T15:09:09.599Z,22.00
2018-08-30T15:11:38.927Z,22.20
2018-08-30T15:14:27.889Z,22.40
2018-08-30T15:17:01.574Z,22.40
2018-08-30T15:19:34.265Z,22.30
2018-08-30T15:22:04.970Z,22.20
2018-08-30T15:24:35.349Z,21.90
2018-08-30T15:27:06.480Z,21.90
2018-08-30T15:29:35.749Z,21.90
2018-08-30T15:32:06.216Z,22.10
2018-08-30T15:34:34.564Z,22.20
2018-08-30T15:37:14.952Z,22.30
2018-08-30T15:39:48.001Z,22.20
2018-08-30T15:42:18.728Z,22.60
2018-08-30T15:44:53.161Z,23.30
2018-08-30T15:47:23.499Z,24.00
2018-08-30T15:49:55.625Z,24.50
2018-08-30T15:52:29.590Z,24.90
2018-08-30T15:55:08.196Z,25.20
2018-08-30T15:57:38.308Z,25.30
2018-08-30T16:00:07.264Z,25.50
2018-08-30T16:02:46.713Z,26.00
2018-08-30T16:05:15.328Z,26.40
2018-08-30T16:07:49.831Z,26.40
2018-08-30T16:10:20.201Z,25.90
2018-08-30T16:12:49.785Z,25.70
2018-08-30T16:15:18.677Z,25.90
2018-08-30T16:17:47.056Z,25.80
2018-08-30T16:20:15.426Z,25.80
2018-08-30T16:23:48.601Z,25.20
2018-08-30T16:26:17.025Z,25.00
2018-08-30T16:28:45.379Z,24.70
2018-08-30T16:31:14.364Z,24.70
2018-08-30T16:33:43.333Z,24.80
2018-08-30T16:36:11.894Z,24.80
2018-08-30T16:38:40.344Z,24.50
2018-08-30T16:41:09.022Z,24.20
2018-08-30T16:43:37.348Z,23.20
2018-08-30T16:46:05.828Z,22.60
2018-08-30T16:48:34.238Z,22.00
2018-08-30T16:51:02.657Z,21.40
2018-08-30T16:53:31.059Z,21.00
2018-08-30T16:55:59.575Z,20.70
2018-08-30T16:58:28.240Z,20.40
2018-08-30T17:00:56.640Z,20.20
2018-08-30T17:03:25.137Z,20.20
2018-08-30T17:06:11.559Z,20.10
2018-08-30T17:08:40.302Z,20.00
2018-08-30T17:11:08.609Z,20.20
2018-08-30T17:13:37.655Z,20.10
2018-08-30T17:16:06.030Z,20.20
2018-08-30T17:18:34.456Z,20.30
2018-08-30T17:21:02.774Z,20.30
2018-08-30T17:23:31.992Z,20.20
2018-08-30T17:26:00.515Z,20.10
2018-08-30T17:28:29.110Z,20.10
2018-08-30T17:31:03.753Z,20.10
2018-08-30T17:33:32.193Z,20.20
2018-08-30T17:36:00.609Z,20.10
2018-08-30T17:38:29.169Z,20.10
2018-08-30T17:40:57.813Z,20.10
2018-08-30T17:43:26.193Z,19.90
2018-08-30T17:45:54.867Z,19.90
2018-08-30T17:48:23.402Z,19.80
2018-08-30T17:50:52.016Z,19.70
2018-08-30T17:53:20.596Z,19.60
2018-08-30T17:55:49.078Z,19.50
2018-08-30T17:58:17.548Z,19.50
2018-08-30T18:00:47.257Z,19.50
2018-08-30T18:03:16.987Z,19.40
2018-08-30T18:05:46.123Z,19.30
2018-08-30T18:08:19.744Z,19.20
2018-08-30T18:10:48.359Z,19.10
2018-08-30T18:13:18.977Z,19.10
2018-08-30T18:15:47.599Z,19.10
2018-08-30T18:18:16.554Z,19.00
2018-08-30T18:20:45.040Z,18.90
2018-08-30T18:23:14.403Z,18.90
2018-08-30T18:25:45.390Z,18.90
2018-08-30T18:28:13.775Z,18.60
2018-08-30T18:30:42.410Z,18.60
2018-08-30T18:33:10.769Z,18.60
2018-08-30T18:35:39.149Z,18.60
2018-08-30T18:38:07.533Z,18.40
2018-08-30T18:40:36.057Z,18.20
2018-08-30T18:43:06.792Z,18.20
2018-08-30T18:45:38.651Z,18.00
2018-08-30T18:48:07.072Z,17.80
2018-08-30T18:50:35.797Z,17.80
2018-08-30T18:53:05.305Z,17.80
2018-08-30T18:55:34.708Z,17.60
2018-08-30T18:58:03.728Z,17.50
2018-08-30T19:00:33.683Z,17.40
2018-08-30T19:03:02.345Z,17.60
2018-08-30T19:11:50.612Z,17.30
2018-08-30T19:14:19.915Z,17.10
2018-08-30T19:16:55.335Z,17.00
2018-08-30T19:19:28.080Z,16.90
2018-08-30T19:21:58.837Z,16.80
2018-08-30T19:24:33.722Z,16.70
2018-08-30T19:27:02.841Z,16.70
2018-08-30T19:29:36.879Z,16.60
2018-08-30T19:32:07.415Z,16.60
2018-08-30T19:34:38.059Z,16.50
2018-08-30T19:37:07.462Z,16.40
2018-08-30T19:39:36.740Z,16.30
2018-08-30T19:44:50.772Z,16.30
2018-08-30T19:47:19.816Z,16.20
2018-08-30T19:49:49.452Z,16.20
2018-08-30T19:52:21.331Z,16.20
2018-08-30T19:54:50.167Z,16.10
2018-08-30T19:57:19.100Z,16.10
2018-08-30T19:59:47.888Z,16.00
2018-08-30T20:02:17.084Z,16.00
2018-08-30T20:04:46.936Z,16.00
2018-08-30T20:07:17.701Z,15.90
2018-08-30T20:09:47.522Z,15.90
2018-08-30T20:12:16.520Z,15.80
2018-08-30T20:14:45.263Z,15.90
2018-08-30T20:17:13.979Z,15.70
2018-08-30T20:19:45.165Z,15.70
2018-08-30T20:22:14.278Z,15.60
2018-08-30T20:24:44.236Z,15.60
2018-08-30T20:27:13.125Z,15.60
2018-08-30T20:29:41.978Z,15.50
2018-08-30T20:32:10.906Z,15.50
2018-08-30T20:34:39.597Z,15.50
2018-08-30T20:37:08.639Z,15.50
2018-08-30T20:39:37.615Z,15.40
2018-08-30T20:42:06.147Z,15.40
2018-08-30T20:47:27.351Z,15.30
2018-08-30T20:49:56.437Z,15.30
2018-08-30T20:52:25.256Z,15.20
2018-08-30T20:54:53.831Z,15.20
2018-08-30T20:57:22.487Z,15.20
2018-08-30T20:59:51.160Z,15.20
2018-08-30T21:02:19.591Z,15.20
2018-08-30T21:04:48.218Z,15.10
2018-08-30T21:07:17.539Z,15.10
2018-08-30T21:09:46.098Z,15.10
2018-08-30T21:12:14.752Z,15.10
2018-08-30T21:14:44.687Z,15.10
2018-08-30T21:17:13.740Z,15.10
2018-08-30T21:19:43.131Z,15.00
2018-08-30T21:22:11.818Z,15.00
2018-08-30T21:24:40.322Z,15.00
2018-08-30T21:27:08.840Z,15.00
2018-08-30T21:29:37.351Z,15.00
2018-08-30T21:32:05.950Z,15.00
2018-08-30T21:34:34.445Z,14.90
2018-08-30T21:37:02.971Z,14.90
2018-08-30T21:39:31.436Z,14.90
2018-08-30T21:42:03.465Z,14.80
2018-08-30T21:44:31.948Z,14.80
2018-08-30T21:47:00.465Z,14.80
2018-08-30T21:49:28.968Z,14.70
2018-08-30T21:51:57.977Z,14.70
2018-08-30T21:54:26.388Z,14.70
2018-08-30T21:56:54.970Z,14.70
2018-08-30T21:59:23.477Z,14.70
2018-08-30T22:01:51.988Z,14.70
2018-08-30T22:04:20.654Z,14.70
2018-08-30T22:06:49.209Z,14.60
2018-08-30T22:09:17.681Z,14.60
2018-08-30T22:11:46.124Z,14.60
2018-08-30T22:14:14.573Z,14.60
2018-08-30T22:16:43.294Z,14.60
2018-08-30T22:19:12.290Z,14.60
2018-08-30T22:21:40.782Z,14.60
2018-08-30T22:24:09.327Z,14.60
2018-08-30T22:26:37.824Z,14.50
2018-08-30T22:29:06.268Z,14.50
2018-08-30T22:31:34.803Z,14.50
2018-08-30T22:34:03.315Z,14.40
2018-08-30T22:36:31.803Z,14.50
2018-08-30T22:39:00.177Z,14.50
2018-08-30T22:41:28.688Z,14.50
2018-08-30T22:43:57.199Z,14.40
2018-08-30T22:46:25.659Z,14.40
2018-08-30T22:48:54.195Z,14.40
2018-08-30T22:51:22.719Z,14.40
2018-08-30T22:53:51.247Z,14.30
2018-08-30T22:56:19.755Z,14.30
2018-08-30T22:58:48.404Z,14.30
2018-08-30T23:01:17.063Z,14.30
2018-08-30T23:03:45.644Z,14.20
2018-08-30T23:06:14.317Z,14.20
2018-08-30T23:08:43.833Z,14.20
2018-08-30T23:11:12.506Z,14.20
2018-08-30T23:13:41.117Z,14.10
2018-08-30T23:16:09.928Z,14.10
2018-08-30T23:18:38.600Z,14.10
2018-08-30T23:21:07.101Z,14.10
2018-08-30T23:23:35.598Z,14.10
2018-08-30T23:26:04.187Z,14.00
2018-08-30T23:28:32.810Z,14.00
2018-08-30T23:31:01.379Z,14.10
2018-08-30T23:33:29.875Z,14.00
2018-08-30T23:35:58.473Z,14.00
2018-08-30T23:38:26.983Z,14.00
2018-08-30T23:40:55.573Z,13.90
2018-08-30T23:43:24.045Z,13.90
2018-08-30T23:45:52.601Z,13.90
2018-08-30T23:48:21.155Z,13.80
2018-08-30T23:50:49.725Z,13.70
2018-08-30T23:53:18.360Z,13.70
2018-08-30T23:55:47.048Z,13.70
2018-08-30T23:58:26.922Z,13.80
